sensor_id;sensor_type;location;lat;lon;timestamp;pressure;altitude;pressure_sealevel;temperature;humidity
9187;BME280;7273;48.902;9.410;2023-03-19T00:02:16;97716.41;;;10.07;58.65
9187;BME280;7273;48.902;9.410;2023-03-19T00:04:42;97718.03;;;10.13;58.24
9187;BME280;7273;48.902;9.410;2023-03-19T00:07:07;97723.47;;;10.08;58.67
9187;BME280;7273;48.902;9.410;2023-03-19T00:09:33;97724.78;;;10.05;58.55
9187;BME280;7273;48.902;9.410;2023-03-19T00:11:58;97714.53;;;10.07;58.60
9187;BME280;7273;48.902;9.410;2023-03-19T00:14:23;97726.19;;;10.08;58.53
9187;BME280;7273;48.902;9.410;2023-03-19T00:16:49;97716.13;;;10.13;58.74
9187;BME280;7273;48.902;9.410;2023-03-19T00:19:14;97721.47;;;10.18;58.43
9187;BME280;7273;48.902;9.410;2023-03-19T00:21:40;97723.38;;;10.23;58.29
9187;BME280;7273;48.902;9.410;2023-03-19T00:24:06;97724.19;;;10.18;58.29
9187;BME280;7273;48.902;9.410;2023-03-19T00:26:32;97722.31;;;10.19;58.26
9187;BME280;7273;48.902;9.410;2023-03-19T00:28:59;97723.19;;;10.09;58.79
9187;BME280;7273;48.902;9.410;2023-03-19T00:31:26;97726.94;;;10.13;58.75
9187;BME280;7273;48.902;9.410;2023-03-19T00:33:52;97723.72;;;10.11;58.51
9187;BME280;7273;48.902;9.410;2023-03-19T00:36:18;97716.16;;;10.08;58.82
9187;BME280;7273;48.902;9.410;2023-03-19T00:38:45;97727.47;;;10.15;58.64
9187;BME280;7273;48.902;9.410;2023-03-19T00:41:12;97731.00;;;10.11;58.61
9187;BME280;7273;48.902;9.410;2023-03-19T00:43:38;97734.50;;;10.16;58.54
9187;BME280;7273;48.902;9.410;2023-03-19T00:46:04;97732.09;;;10.10;58.78
9187;BME280;7273;48.902;9.410;2023-03-19T00:48:30;97728.88;;;10.08;58.69
9187;BME280;7273;48.902;9.410;2023-03-19T00:51:01;97734.75;;;10.15;58.54
9187;BME280;7273;48.902;9.410;2023-03-19T00:53:26;97735.31;;;10.12;58.58
9187;BME280;7273;48.902;9.410;2023-03-19T00:55:52;97735.06;;;10.08;59.02
9187;BME280;7273;48.902;9.410;2023-03-19T00:58:17;97732.91;;;10.05;59.19
9187;BME280;7273;48.902;9.410;2023-03-19T01:00:42;97733.72;;;10.11;58.78
9187;BME280;7273;48.902;9.410;2023-03-19T01:03:08;97732.13;;;10.05;59.05
9187;BME280;7273;48.902;9.410;2023-03-19T01:05:34;97735.34;;;10.02;59.27
9187;BME280;7273;48.902;9.410;2023-03-19T01:08:00;97730.50;;;9.99;59.29
9187;BME280;7273;48.902;9.410;2023-03-19T01:10:26;97728.31;;;10.06;59.14
9187;BME280;7273;48.902;9.410;2023-03-19T01:12:52;97736.41;;;10.06;59.33
9187;BME280;7273;48.902;9.410;2023-03-19T01:15:18;97731.88;;;10.01;59.44
9187;BME280;7273;48.902;9.410;2023-03-19T01:17:44;97730.22;;;10.00;58.99
9187;BME280;7273;48.902;9.410;2023-03-19T01:20:10;97730.22;;;10.00;59.28
9187;BME280;7273;48.902;9.410;2023-03-19T01:22:43;97737.50;;;10.05;59.00
9187;BME280;7273;48.902;9.410;2023-03-19T01:25:11;97727.03;;;9.98;59.30
9187;BME280;7273;48.902;9.410;2023-03-19T01:27:37;97730.25;;;9.95;59.46
9187;BME280;7273;48.902;9.410;2023-03-19T01:30:04;97730.00;;;9.97;59.43
9187;BME280;7273;48.902;9.410;2023-03-19T01:32:29;97730.50;;;9.99;59.30
9187;BME280;7273;48.902;9.410;2023-03-19T01:34:55;97728.88;;;10.03;59.24
9187;BME280;7273;48.902;9.410;2023-03-19T01:37:20;97734.28;;;10.08;59.28
9187;BME280;7273;48.902;9.410;2023-03-19T01:39:46;97731.56;;;10.08;59.41
9187;BME280;7273;48.902;9.410;2023-03-19T01:42:12;97743.16;;;10.08;59.39
9187;BME280;7273;48.902;9.410;2023-03-19T01:44:38;97748.03;;;10.06;59.32
9187;BME280;7273;48.902;9.410;2023-03-19T01:47:16;97749.09;;;10.10;59.79
9187;BME280;7273;48.902;9.410;2023-03-19T01:49:42;97748.56;;;10.08;59.41
9187;BME280;7273;48.902;9.410;2023-03-19T01:52:12;97744.53;;;10.11;59.27
9187;BME280;7273;48.902;9.410;2023-03-19T01:54:39;97748.53;;;10.13;59.44
9187;BME280;7273;48.902;9.410;2023-03-19T01:57:08;97753.16;;;10.13;59.42
9187;BME280;7273;48.902;9.410;2023-03-19T01:59:43;97757.72;;;10.17;59.82
9187;BME280;7273;48.902;9.410;2023-03-19T02:04:52;97769.34;;;10.18;59.53
9187;BME280;7273;48.902;9.410;2023-03-19T02:07:20;97779.06;;;10.14;59.48
9187;BME280;7273;48.902;9.410;2023-03-19T02:09:46;97771.53;;;10.11;59.87
9187;BME280;7273;48.902;9.410;2023-03-19T02:12:12;97776.38;;;10.14;59.76
9187;BME280;7273;48.902;9.410;2023-03-19T02:14:37;97771.25;;;10.12;59.38
9187;BME280;7273;48.902;9.410;2023-03-19T02:17:04;97775.56;;;10.13;59.50
9187;BME280;7273;48.902;9.410;2023-03-19T02:19:57;97773.09;;;10.17;60.21
9187;BME280;7273;48.902;9.410;2023-03-19T02:22:28;97828.00;;;10.12;60.17
9187;BME280;7273;48.902;9.410;2023-03-19T02:27:20;97797.75;;;10.05;59.72
9187;BME280;7273;48.902;9.410;2023-03-19T02:29:46;97804.78;;;10.11;59.34
9187;BME280;7273;48.902;9.410;2023-03-19T02:32:11;97794.47;;;10.13;59.35
9187;BME280;7273;48.902;9.410;2023-03-19T02:34:39;97804.75;;;10.16;58.89
9187;BME280;7273;48.902;9.410;2023-03-19T02:37:31;97799.84;;;10.18;60.29
9187;BME280;7273;48.902;9.410;2023-03-19T02:40:00;97810.94;;;10.17;59.31
9187;BME280;7273;48.902;9.410;2023-03-19T02:42:29;97818.50;;;10.15;59.63
9187;BME280;7273;48.902;9.410;2023-03-19T02:44:55;97815.06;;;10.09;59.21
9187;BME280;7273;48.902;9.410;2023-03-19T02:47:21;97819.94;;;9.97;59.67
9187;BME280;7273;48.902;9.410;2023-03-19T02:49:46;97824.31;;;9.88;59.96
9187;BME280;7273;48.902;9.410;2023-03-19T02:52:12;97829.41;;;9.95;60.13
9187;BME280;7273;48.902;9.410;2023-03-19T02:54:37;97822.91;;;9.96;60.12
9187;BME280;7273;48.902;9.410;2023-03-19T02:57:03;97822.66;;;9.92;60.43
9187;BME280;7273;48.902;9.410;2023-03-19T02:59:29;97820.22;;;9.96;60.07
9187;BME280;7273;48.902;9.410;2023-03-19T03:01:54;97823.19;;;9.94;60.13
9187;BME280;7273;48.902;9.410;2023-03-19T03:04:19;97826.16;;;9.98;60.30
9187;BME280;7273;48.902;9.410;2023-03-19T03:06:45;97823.44;;;10.03;59.85
9187;BME280;7273;48.902;9.410;2023-03-19T03:09:12;97821.00;;;10.01;60.36
9187;BME280;7273;48.902;9.410;2023-03-19T03:11:38;97815.88;;;10.05;59.95
9187;BME280;7273;48.902;9.410;2023-03-19T03:14:05;97815.59;;;10.06;60.04
9187;BME280;7273;48.902;9.410;2023-03-19T03:16:31;97821.75;;;10.17;59.98
9187;BME280;7273;48.902;9.410;2023-03-19T03:18:57;97833.38;;;10.17;60.00
9187;BME280;7273;48.902;9.410;2023-03-19T03:21:23;97833.38;;;10.17;59.94
9187;BME280;7273;48.902;9.410;2023-03-19T03:23:49;97818.47;;;10.20;59.85
9187;BME280;7273;48.902;9.410;2023-03-19T03:26:15;97823.34;;;10.23;59.99
9187;BME280;7273;48.902;9.410;2023-03-19T03:28:41;97824.69;;;10.20;60.50
9187;BME280;7273;48.902;9.410;2023-03-19T03:31:07;97837.97;;;10.17;60.56
9187;BME280;7273;48.902;9.410;2023-03-19T03:33:33;97835.78;;;10.19;60.13
9187;BME280;7273;48.902;9.410;2023-03-19T03:35:58;97831.47;;;10.23;60.30
9187;BME280;7273;48.902;9.410;2023-03-19T03:38:24;97838.97;;;10.31;60.09
9187;BME280;7273;48.902;9.410;2023-03-19T03:40:52;97837.91;;;10.27;60.40
9187;BME280;7273;48.902;9.410;2023-03-19T03:43:18;97820.09;;;10.26;64.31
9187;BME280;7273;48.902;9.410;2023-03-19T03:45:45;97824.94;;;10.29;60.96
9187;BME280;7273;48.902;9.410;2023-03-19T03:48:12;97826.25;;;10.31;60.50
9187;BME280;7273;48.902;9.410;2023-03-19T03:50:37;97822.22;;;10.29;60.72
9187;BME280;7273;48.902;9.410;2023-03-19T03:53:03;97827.09;;;10.27;60.84
9187;BME280;7273;48.902;9.410;2023-03-19T03:55:29;97813.03;;;10.25;60.80
9187;BME280;7273;48.902;9.410;2023-03-19T03:57:54;97816.09;;;10.13;61.13
9187;BME280;7273;48.902;9.410;2023-03-19T04:00:20;97811.25;;;10.10;61.24
9187;BME280;7273;48.902;9.410;2023-03-19T04:02:46;97808.53;;;10.10;61.11
9187;BME280;7273;48.902;9.410;2023-03-19T04:05:11;97815.31;;;10.13;61.36
9187;BME280;7273;48.902;9.410;2023-03-19T04:07:37;97816.94;;;10.09;61.55
9187;BME280;7273;48.902;9.410;2023-03-19T04:10:03;97812.34;;;10.04;61.44
9187;BME280;7273;48.902;9.410;2023-03-19T04:12:30;97821.28;;;10.00;61.61
9187;BME280;7273;48.902;9.410;2023-03-19T04:14:55;97817.78;;;9.94;61.92
9187;BME280;7273;48.902;9.410;2023-03-19T04:17:21;97829.41;;;9.95;62.19
9187;BME280;7273;48.902;9.410;2023-03-19T04:19:46;97824.56;;;9.92;61.94
9187;BME280;7273;48.902;9.410;2023-03-19T04:22:12;97828.94;;;9.83;62.34
9187;BME280;7273;48.902;9.410;2023-03-19T04:24:37;97830.59;;;9.79;62.22
9187;BME280;7273;48.902;9.410;2023-03-19T04:27:02;97829.50;;;9.75;62.34
9187;BME280;7273;48.902;9.410;2023-03-19T04:29:28;97841.91;;;9.76;62.74
9187;BME280;7273;48.902;9.410;2023-03-19T04:31:53;97843.53;;;9.77;62.57
9187;BME280;7273;48.902;9.410;2023-03-19T04:34:18;97839.22;;;9.76;62.29
9187;BME280;7273;48.902;9.410;2023-03-19T04:36:44;97838.16;;;9.72;62.83
9187;BME280;7273;48.902;9.410;2023-03-19T04:39:09;97847.59;;;9.69;62.76
9187;BME280;7273;48.902;9.410;2023-03-19T04:41:35;97846.56;;;9.65;63.04
9187;BME280;7273;48.902;9.410;2023-03-19T04:44:00;97851.69;;;9.62;63.49
9187;BME280;7273;48.902;9.410;2023-03-19T04:46:26;97847.66;;;9.59;63.45
9187;BME280;7273;48.902;9.410;2023-03-19T04:48:52;97850.38;;;9.59;63.24
9187;BME280;7273;48.902;9.410;2023-03-19T04:51:17;97860.88;;;9.66;62.96
9187;BME280;7273;48.902;9.410;2023-03-19T04:53:45;97851.66;;;9.72;63.04
9187;BME280;7273;48.902;9.410;2023-03-19T04:56:10;97855.41;;;9.76;62.65
9187;BME280;7273;48.902;9.410;2023-03-19T04:58:36;97847.00;;;9.82;62.42
9187;BME280;7273;48.902;9.410;2023-03-19T05:01:01;97849.69;;;9.87;62.60
9187;BME280;7273;48.902;9.410;2023-03-19T05:03:27;97854.03;;;9.88;62.67
9187;BME280;7273;48.902;9.410;2023-03-19T05:05:53;97858.88;;;9.91;62.31
9187;BME280;7273;48.902;9.410;2023-03-19T05:08:19;97861.00;;;9.94;62.42
9187;BME280;7273;48.902;9.410;2023-03-19T05:10:45;97850.75;;;9.96;62.20
9187;BME280;7273;48.902;9.410;2023-03-19T05:13:10;97861.28;;;9.98;62.39
9187;BME280;7273;48.902;9.410;2023-03-19T05:15:36;97863.69;;;9.99;62.44
9187;BME280;7273;48.902;9.410;2023-03-19T05:18:01;97862.63;;;9.95;62.29
9187;BME280;7273;48.902;9.410;2023-03-19T05:20:26;97863.44;;;9.96;62.40
9187;BME280;7273;48.902;9.410;2023-03-19T05:22:52;97869.38;;;9.98;62.55
9187;BME280;7273;48.902;9.410;2023-03-19T05:25:17;97878.53;;;10.02;62.53
9187;BME280;7273;48.902;9.410;2023-03-19T05:27:43;97875.59;;;9.98;62.23
9187;BME280;7273;48.902;9.410;2023-03-19T05:30:09;97875.59;;;9.98;62.51
9187;BME280;7273;48.902;9.410;2023-03-19T05:32:35;97874.75;;;10.03;62.58
9187;BME280;7273;48.902;9.410;2023-03-19T05:35:01;97879.06;;;10.09;62.23
9187;BME280;7273;48.902;9.410;2023-03-19T05:37:28;97880.19;;;10.08;62.48
9187;BME280;7273;48.902;9.410;2023-03-19T05:39:53;97886.06;;;10.15;62.24
9187;BME280;7273;48.902;9.410;2023-03-19T05:42:19;97886.06;;;10.15;62.14
9187;BME280;7273;48.902;9.410;2023-03-19T05:44:45;97886.59;;;10.17;62.16
9187;BME280;7273;48.902;9.410;2023-03-19T05:47:10;97883.88;;;10.22;62.42
9187;BME280;7273;48.902;9.410;2023-03-19T05:49:36;97881.16;;;10.22;62.22
9187;BME280;7273;48.902;9.410;2023-03-19T05:52:02;97881.44;;;10.25;62.13
9187;BME280;7273;48.902;9.410;2023-03-19T05:54:27;97875.19;;;10.25;62.22
9187;BME280;7273;48.902;9.410;2023-03-19T05:56:52;97879.53;;;10.26;62.62
9187;BME280;7273;48.902;9.410;2023-03-19T05:59:18;97878.44;;;10.27;62.46
9187;BME280;7273;48.902;9.410;2023-03-19T06:01:43;97893.06;;;10.26;62.57
9187;BME280;7273;48.902;9.410;2023-03-19T06:04:09;97891.94;;;10.27;62.36
9187;BME280;7273;48.902;9.410;2023-03-19T06:06:34;97893.53;;;10.33;62.60
9187;BME280;7273;48.902;9.410;2023-03-19T06:09:00;97902.72;;;10.37;62.41
9187;BME280;7273;48.902;9.410;2023-03-19T06:11:26;97899.72;;;10.38;62.47
9187;BME280;7273;48.902;9.410;2023-03-19T06:13:51;97897.28;;;10.42;62.61
9187;BME280;7273;48.902;9.410;2023-03-19T06:16:16;97903.22;;;10.44;62.66
9187;BME280;7273;48.902;9.410;2023-03-19T06:18:42;97904.25;;;10.48;62.16
9187;BME280;7273;48.902;9.410;2023-03-19T06:21:07;97908.31;;;10.50;62.18
9187;BME280;7273;48.902;9.410;2023-03-19T06:23:33;97908.03;;;10.52;62.39
9187;BME280;7273;48.902;9.410;2023-03-19T06:25:58;97914.25;;;10.52;62.38
9187;BME280;7273;48.902;9.410;2023-03-19T06:28:24;97921.00;;;10.55;62.22
9187;BME280;7273;48.902;9.410;2023-03-19T06:30:49;97915.03;;;10.58;62.21
9187;BME280;7273;48.902;9.410;2023-03-19T06:33:14;97918.25;;;10.60;62.29
9187;BME280;7273;48.902;9.410;2023-03-19T06:35:40;97920.97;;;10.60;62.49
9187;BME280;7273;48.902;9.410;2023-03-19T06:38:06;97923.41;;;10.61;62.54
9187;BME280;7273;48.902;9.410;2023-03-19T06:40:32;97924.22;;;10.62;62.56
9187;BME280;7273;48.902;9.410;2023-03-19T06:42:57;97920.13;;;10.64;62.48
9187;BME280;7273;48.902;9.410;2023-03-19T06:45:23;97917.66;;;10.68;62.37
9187;BME280;7273;48.902;9.410;2023-03-19T06:47:49;97923.03;;;10.78;62.24
9187;BME280;7273;48.902;9.410;2023-03-19T06:50:15;97923.03;;;10.78;62.22
9187;BME280;7273;48.902;9.410;2023-03-19T06:52:42;97907.28;;;10.85;61.83
9187;BME280;7273;48.902;9.410;2023-03-19T06:55:08;97913.16;;;10.92;61.83
9187;BME280;7273;48.902;9.410;2023-03-19T06:57:35;97912.59;;;10.95;62.21
9187;BME280;7273;48.902;9.410;2023-03-19T07:00:01;97912.28;;;11.02;62.35
9187;BME280;7273;48.902;9.410;2023-03-19T07:02:26;97919.03;;;11.04;62.37
9187;BME280;7273;48.902;9.410;2023-03-19T07:04:52;97910.88;;;11.09;62.37
9187;BME280;7273;48.902;9.410;2023-03-19T07:07:17;97921.38;;;11.16;62.11
9187;BME280;7273;48.902;9.410;2023-03-19T07:09:43;97916.44;;;11.23;62.41
9187;BME280;7273;48.902;9.410;2023-03-19T07:12:08;97916.66;;;11.26;62.17
9187;BME280;7273;48.902;9.410;2023-03-19T07:14:34;97917.44;;;11.32;62.07
9187;BME280;7273;48.902;9.410;2023-03-19T07:16:59;97919.28;;;11.36;61.85
9187;BME280;7273;48.902;9.410;2023-03-19T07:19:25;97921.09;;;11.46;61.81
9187;BME280;7273;48.902;9.410;2023-03-19T07:21:50;97925.44;;;11.47;61.32
9187;BME280;7273;48.902;9.410;2023-03-19T07:24:16;97920.22;;;11.55;61.41
9187;BME280;7273;48.902;9.410;2023-03-19T07:26:41;97925.34;;;11.57;61.69
9187;BME280;7273;48.902;9.410;2023-03-19T07:29:08;97921.75;;;11.66;61.52
9187;BME280;7273;48.902;9.410;2023-03-19T07:31:34;97925.72;;;11.74;61.39
9187;BME280;7273;48.902;9.410;2023-03-19T07:34:00;97935.72;;;11.78;61.57
9187;BME280;7273;48.902;9.410;2023-03-19T07:36:25;97936.44;;;11.84;61.61
9187;BME280;7273;48.902;9.410;2023-03-19T07:38:50;97938.56;;;11.87;61.55
9187;BME280;7273;48.902;9.410;2023-03-19T07:41:16;97941.75;;;11.94;61.66
9187;BME280;7273;48.902;9.410;2023-03-19T07:43:41;97939.81;;;11.99;61.66
9187;BME280;7273;48.902;9.410;2023-03-19T07:46:07;97939.47;;;12.06;61.50
9187;BME280;7273;48.902;9.410;2023-03-19T07:48:32;97941.00;;;12.12;61.31
9187;BME280;7273;48.902;9.410;2023-03-19T07:50:58;97944.97;;;12.19;61.32
9187;BME280;7273;48.902;9.410;2023-03-19T07:53:23;97941.13;;;12.26;61.04
9187;BME280;7273;48.902;9.410;2023-03-19T07:55:49;97945.91;;;12.34;61.13
9187;BME280;7273;48.902;9.410;2023-03-19T07:58:14;97947.44;;;12.40;61.09
9187;BME280;7273;48.902;9.410;2023-03-19T08:00:41;97941.44;;;12.43;60.98
9187;BME280;7273;48.902;9.410;2023-03-19T08:03:07;97941.91;;;12.50;60.80
9187;BME280;7273;48.902;9.410;2023-03-19T08:05:32;97944.25;;;12.56;60.82
9187;BME280;7273;48.902;9.410;2023-03-19T08:07:58;97942.34;;;12.57;60.90
9187;BME280;7273;48.902;9.410;2023-03-19T08:10:23;97943.88;;;12.63;60.99
9187;BME280;7273;48.902;9.410;2023-03-19T08:12:48;97946.31;;;12.64;60.93
9187;BME280;7273;48.902;9.410;2023-03-19T08:15:14;97946.00;;;12.66;60.56
9187;BME280;7273;48.902;9.410;2023-03-19T08:17:40;97946.59;;;12.63;60.77
9187;BME280;7273;48.902;9.410;2023-03-19T08:20:13;97953.19;;;12.75;61.00
9187;BME280;7273;48.902;9.410;2023-03-19T08:22:41;97947.19;;;12.78;60.49
9187;BME280;7273;48.902;9.410;2023-03-19T08:25:08;97944.41;;;12.83;60.61
9187;BME280;7273;48.902;9.410;2023-03-19T08:27:33;97948.00;;;12.79;60.74
9187;BME280;7273;48.902;9.410;2023-03-19T08:30:08;97947.41;;;12.82;60.89
9187;BME280;7273;48.902;9.410;2023-03-19T08:32:34;97948.22;;;12.82;60.83
9187;BME280;7273;48.902;9.410;2023-03-19T08:35:00;97950.03;;;12.87;60.70
9187;BME280;7273;48.902;9.410;2023-03-19T08:37:26;97952.75;;;12.87;60.88
9187;BME280;7273;48.902;9.410;2023-03-19T08:39:51;97946.97;;;12.93;60.76
9187;BME280;7273;48.902;9.410;2023-03-19T08:42:18;97946.88;;;12.98;60.57
9187;BME280;7273;48.902;9.410;2023-03-19T08:44:44;97948.75;;;13.03;60.66
9187;BME280;7273;48.902;9.410;2023-03-19T08:47:09;97948.66;;;13.08;60.71
9187;BME280;7273;48.902;9.410;2023-03-19T08:49:36;97953.59;;;13.06;60.91
9187;BME280;7273;48.902;9.410;2023-03-19T08:52:02;97948.50;;;13.18;60.48
9187;BME280;7273;48.902;9.410;2023-03-19T08:54:28;97950.72;;;13.16;60.72
9187;BME280;7273;48.902;9.410;2023-03-19T08:56:53;97953.16;;;13.17;60.71
9187;BME280;7273;48.902;9.410;2023-03-19T08:59:19;97953.94;;;13.18;60.47
9187;BME280;7273;48.902;9.410;2023-03-19T09:01:44;97952.25;;;13.22;60.83
9187;BME280;7273;48.902;9.410;2023-03-19T09:04:09;97948.44;;;13.23;60.74
9187;BME280;7273;48.902;9.410;2023-03-19T09:06:35;97955.19;;;13.25;60.51
9187;BME280;7273;48.902;9.410;2023-03-19T09:09:00;97951.28;;;13.31;60.45
9187;BME280;7273;48.902;9.410;2023-03-19T09:11:26;97958.03;;;13.34;60.49
9187;BME280;7273;48.902;9.410;2023-03-19T09:13:51;97957.94;;;13.39;60.41
9187;BME280;7273;48.902;9.410;2023-03-19T09:16:17;97956.47;;;13.46;60.33
9187;BME280;7273;48.902;9.410;2023-03-19T09:18:42;97962.03;;;13.55;60.13
9187;BME280;7273;48.902;9.410;2023-03-19T09:21:08;97960.94;;;13.56;60.35
9187;BME280;7273;48.902;9.410;2023-03-19T09:23:34;97968.78;;;13.58;59.96
9187;BME280;7273;48.902;9.410;2023-03-19T09:25:59;97966.50;;;13.65;60.18
9187;BME280;7273;48.902;9.410;2023-03-19T09:28:25;97963.16;;;13.68;60.02
9187;BME280;7273;48.902;9.410;2023-03-19T09:30:51;97966.09;;;13.85;59.78
9187;BME280;7273;48.902;9.410;2023-03-19T09:33:18;97970.78;;;13.98;59.38
9187;BME280;7273;48.902;9.410;2023-03-19T09:35:49;97964.25;;;14.26;59.53
9187;BME280;7273;48.902;9.410;2023-03-19T09:38:16;97970.44;;;14.45;59.20
9187;BME280;7273;48.902;9.410;2023-03-19T09:40:47;97971.09;;;14.64;59.20
9187;BME280;7273;48.902;9.410;2023-03-19T09:43:29;97971.28;;;14.81;59.03
9187;BME280;7273;48.902;9.410;2023-03-19T09:46:08;97964.91;;;15.21;58.55
9187;BME280;7273;48.902;9.410;2023-03-19T09:48:50;97958.75;;;15.51;58.28
9187;BME280;7273;48.902;9.410;2023-03-19T09:51:27;97958.28;;;15.80;57.93
9187;BME280;7273;48.902;9.410;2023-03-19T09:54:00;97952.03;;;16.10;57.52
9187;BME280;7273;48.902;9.410;2023-03-19T09:56:28;97949.63;;;16.48;57.02
9187;BME280;7273;48.902;9.410;2023-03-19T09:58:55;97952.91;;;16.84;56.71
9187;BME280;7273;48.902;9.410;2023-03-19T10:01:30;97944.06;;;17.12;56.47
9187;BME280;7273;48.902;9.410;2023-03-19T10:06:36;97946.16;;;17.15;56.92
9187;BME280;7273;48.902;9.410;2023-03-19T10:17:28;97938.94;;;17.54;55.89
9187;BME280;7273;48.902;9.410;2023-03-19T10:20:11;97939.41;;;17.56;55.68
9187;BME280;7273;48.902;9.410;2023-03-19T10:22:44;97932.28;;;17.80;55.79
9187;BME280;7273;48.902;9.410;2023-03-19T10:25:15;97936.09;;;17.96;55.25
9187;BME280;7273;48.902;9.410;2023-03-19T10:27:45;97931.91;;;17.99;54.90
9187;BME280;7273;48.902;9.410;2023-03-19T10:30:14;97929.22;;;18.28;50.91
9187;BME280;7273;48.902;9.410;2023-03-19T10:32:45;97932.09;;;18.31;53.84
9187;BME280;7273;48.902;9.410;2023-03-19T10:35:26;97933.34;;;18.42;53.82
9187;BME280;7273;48.902;9.410;2023-03-19T10:38:15;97927.22;;;18.45;53.17
9187;BME280;7273;48.902;9.410;2023-03-19T10:41:18;97919.97;;;18.49;51.07
9187;BME280;7273;48.902;9.410;2023-03-19T10:43:50;97922.41;;;18.42;53.39
9187;BME280;7273;48.902;9.410;2023-03-19T10:46:16;97921.44;;;18.67;53.93
9187;BME280;7273;48.902;9.410;2023-03-19T10:48:43;97915.44;;;18.95;53.41
9187;BME280;7273;48.902;9.410;2023-03-19T10:51:13;97914.72;;;19.06;53.13
9187;BME280;7273;48.902;9.410;2023-03-19T10:53:40;97918.91;;;19.04;53.32
9187;BME280;7273;48.902;9.410;2023-03-19T10:56:21;97918.13;;;19.03;53.18
9187;BME280;7273;48.902;9.410;2023-03-19T10:58:59;97912.69;;;19.15;51.69
9187;BME280;7273;48.902;9.410;2023-03-19T11:01:27;97911.94;;;19.27;53.25
9187;BME280;7273;48.902;9.410;2023-03-19T11:03:57;97906.03;;;19.25;53.22
9187;BME280;7273;48.902;9.410;2023-03-19T11:06:36;97908.81;;;19.37;48.33
9187;BME280;7273;48.902;9.410;2023-03-19T11:09:13;97908.28;;;19.43;51.76
9187;BME280;7273;48.902;9.410;2023-03-19T11:11:46;97905.88;;;19.42;52.58
9187;BME280;7273;48.902;9.410;2023-03-19T11:14:17;97904.84;;;19.46;52.17
9187;BME280;7273;48.902;9.410;2023-03-19T11:16:57;97904.47;;;19.68;52.42
9187;BME280;7273;48.902;9.410;2023-03-19T11:19:28;97903.75;;;19.59;51.67
9187;BME280;7273;48.902;9.410;2023-03-19T11:22:00;97908.22;;;19.96;51.66
9187;BME280;7273;48.902;9.410;2023-03-19T11:24:30;97900.19;;;20.03;51.89
9187;BME280;7273;48.902;9.410;2023-03-19T11:26:57;97889.31;;;20.07;52.06
9187;BME280;7273;48.902;9.410;2023-03-19T11:29:26;97900.56;;;20.14;51.73
9187;BME280;7273;48.902;9.410;2023-03-19T11:34:58;97894.69;;;20.03;51.86
9187;BME280;7273;48.902;9.410;2023-03-19T11:40:20;97881.59;;;20.45;51.58
9187;BME280;7273;48.902;9.410;2023-03-19T11:45:53;97881.31;;;20.02;51.95
9187;BME280;7273;48.902;9.410;2023-03-19T11:56:34;97876.94;;;19.89;53.00
9187;BME280;7273;48.902;9.410;2023-03-19T12:02:31;97873.41;;;19.76;50.91
9187;BME280;7273;48.902;9.410;2023-03-19T12:07:34;97862.16;;;19.57;53.32
9187;BME280;7273;48.902;9.410;2023-03-19T12:19:04;97853.78;;;19.21;51.74
9187;BME280;7273;48.902;9.410;2023-03-19T12:29:51;97842.47;;;19.23;53.22
9187;BME280;7273;48.902;9.410;2023-03-19T12:35:08;97841.06;;;19.37;52.72
9187;BME280;7273;48.902;9.410;2023-03-19T12:37:43;97846.28;;;19.30;52.36
9187;BME280;7273;48.902;9.410;2023-03-19T12:40:41;97842.59;;;19.26;51.44
9187;BME280;7273;48.902;9.410;2023-03-19T12:43:40;97845.66;;;18.92;49.81
9187;BME280;7273;48.902;9.410;2023-03-19T12:46:15;97845.31;;;18.73;52.28
9187;BME280;7273;48.902;9.410;2023-03-19T12:49:06;97843.84;;;18.55;50.95
9187;BME280;7273;48.902;9.410;2023-03-19T12:51:39;97841.97;;;18.67;52.20
9187;BME280;7273;48.902;9.410;2023-03-19T12:54:13;97837.97;;;18.65;52.37
9187;BME280;7273;48.902;9.410;2023-03-19T12:56:49;97836.63;;;18.71;52.01
9187;BME280;7273;48.902;9.410;2023-03-19T13:05:12;97839.53;;;18.54;49.74
9187;BME280;7273;48.902;9.410;2023-03-19T13:08:02;97837.66;;;18.46;52.09
9187;BME280;7273;48.902;9.410;2023-03-19T13:10:30;97831.56;;;18.40;52.11
9187;BME280;7273;48.902;9.410;2023-03-19T13:12:57;97826.22;;;18.44;52.29
9187;BME280;7273;48.902;9.410;2023-03-19T13:15:34;97827.22;;;18.39;52.09
9187;BME280;7273;48.902;9.410;2023-03-19T13:18:10;97830.13;;;18.34;52.44
9187;BME280;7273;48.902;9.410;2023-03-19T13:23:37;97833.44;;;17.90;52.75
9187;BME280;7273;48.902;9.410;2023-03-19T13:26:06;97848.81;;;17.66;53.31
9187;BME280;7273;48.902;9.410;2023-03-19T13:28:36;97840.19;;;17.38;53.74
9187;BME280;7273;48.902;9.410;2023-03-19T13:31:06;97846.50;;;17.30;53.78
9187;BME280;7273;48.902;9.410;2023-03-19T13:33:35;97845.53;;;17.09;54.21
9187;BME280;7273;48.902;9.410;2023-03-19T13:36:06;97844.44;;;16.84;54.40
9187;BME280;7273;48.902;9.410;2023-03-19T13:40:59;97844.25;;;16.55;54.40
9187;BME280;7273;48.902;9.410;2023-03-19T13:50:59;97872.13;;;15.79;54.84
9187;BME280;7273;48.902;9.410;2023-03-19T13:55:56;97888.75;;;15.38;55.58
9187;BME280;7273;48.902;9.410;2023-03-19T13:58:25;97888.09;;;15.11;56.20
9187;BME280;7273;48.902;9.410;2023-03-19T14:06:47;97903.16;;;14.59;57.71
9187;BME280;7273;48.902;9.410;2023-03-19T14:14:57;97860.59;;;14.00;59.11
9187;BME280;7273;48.902;9.410;2023-03-19T14:17:28;97847.97;;;14.18;58.21
9187;BME280;7273;48.902;9.410;2023-03-19T14:19:55;97844.38;;;14.09;58.26
9187;BME280;7273;48.902;9.410;2023-03-19T14:22:37;97849.81;;;14.09;59.33
9187;BME280;7273;48.902;9.410;2023-03-19T14:27:53;97850.66;;;13.96;60.17
9187;BME280;7273;48.902;9.410;2023-03-19T14:30:39;97852.53;;;14.09;60.64
9187;BME280;7273;48.902;9.410;2023-03-19T14:33:27;97849.63;;;14.05;59.68
9187;BME280;7273;48.902;9.410;2023-03-19T14:35:57;97841.25;;;14.02;59.37
9187;BME280;7273;48.902;9.410;2023-03-19T14:38:37;97846.59;;;13.93;60.17
9187;BME280;7273;48.902;9.410;2023-03-19T14:41:05;97849.41;;;14.02;59.19
9187;BME280;7273;48.902;9.410;2023-03-19T14:52:16;97868.16;;;14.03;59.19
9187;BME280;7273;48.902;9.410;2023-03-19T14:57:18;97871.88;;;13.94;59.25
9187;BME280;7273;48.902;9.410;2023-03-19T14:59:44;97863.53;;;13.90;59.66
9187;BME280;7273;48.902;9.410;2023-03-19T15:05:08;97844.59;;;13.99;59.96
9187;BME280;7273;48.902;9.410;2023-03-19T15:07:43;97853.06;;;13.97;60.35
9187;BME280;7273;48.902;9.410;2023-03-19T15:10:18;97853.25;;;14.01;60.46
9187;BME280;7273;48.902;9.410;2023-03-19T15:13:00;97857.06;;;14.00;60.86
9187;BME280;7273;48.902;9.410;2023-03-19T15:18:34;97864.44;;;13.99;59.91
9187;BME280;7273;48.902;9.410;2023-03-19T15:21:02;97875.09;;;13.96;60.22